createdAt,value
2022-11-06T00:00:30.082Z,8.97
2022-11-06T00:02:59.191Z,9.57
2022-11-06T00:05:44.861Z,8.80
2022-11-06T00:08:13.316Z,10.23
2022-11-06T00:10:41.777Z,9.03
2022-11-06T00:13:09.957Z,13.90
2022-11-06T00:15:39.516Z,9.50
2022-11-06T00:18:07.679Z,10.40
2022-11-06T00:20:35.944Z,9.80
2022-11-06T00:23:04.147Z,11.17
2022-11-06T00:25:32.301Z,12.57
2022-11-06T00:28:00.454Z,10.57
2022-11-06T00:30:28.701Z,13.67
2022-11-06T00:32:59.499Z,13.30
2022-11-06T00:35:27.707Z,15.40
2022-11-06T00:37:56.136Z,13.57
2022-11-06T00:40:24.429Z,12.67
2022-11-06T00:42:57.173Z,12.37
2022-11-06T00:45:26.057Z,13.37
2022-11-06T00:47:54.216Z,16.03
2022-11-06T00:50:26.495Z,13.47
2022-11-06T00:52:56.130Z,13.73
2022-11-06T00:55:24.388Z,12.20
2022-11-06T00:57:52.585Z,12.70
2022-11-06T01:00:22.507Z,15.53
2022-11-06T01:02:50.786Z,12.77
2022-11-06T01:05:19.242Z,15.63
2022-11-06T01:07:48.774Z,13.90
2022-11-06T01:10:16.946Z,13.60
2022-11-06T01:12:45.114Z,14.30
2022-11-06T01:15:13.273Z,15.00
2022-11-06T01:17:41.444Z,14.07
2022-11-06T01:20:10.838Z,12.50
2022-11-06T01:22:38.982Z,12.53
2022-11-06T01:25:10.114Z,14.87
2022-11-06T01:27:38.390Z,13.47
2022-11-06T01:30:07.764Z,16.23
2022-11-06T01:32:35.966Z,13.97
2022-11-06T01:35:04.211Z,13.27
2022-11-06T01:37:32.360Z,15.83
2022-11-06T01:40:00.508Z,12.97
2022-11-06T01:42:30.181Z,12.47
2022-11-06T01:45:22.098Z,13.53
2022-11-06T01:47:50.869Z,14.83
2022-11-06T01:50:19.875Z,16.13
2022-11-06T01:52:50.577Z,12.17
2022-11-06T01:55:23.787Z,13.50
2022-11-06T01:57:53.871Z,13.57
2022-11-06T02:00:22.212Z,14.57
2022-11-06T02:02:52.177Z,12.37
2022-11-06T02:05:20.797Z,14.67
2022-11-06T02:07:49.863Z,14.03
2022-11-06T02:10:18.857Z,15.70
2022-11-06T02:12:57.728Z,14.07
2022-11-06T02:15:35.760Z,12.40
2022-11-06T02:18:34.409Z,12.93
2022-11-06T02:21:26.218Z,14.20
2022-11-06T02:24:42.605Z,12.67
2022-11-06T02:27:14.189Z,11.53
2022-11-06T02:29:49.952Z,12.57
2022-11-06T02:32:22.871Z,16.43
2022-11-06T02:34:54.545Z,12.90
2022-11-06T02:37:28.070Z,12.83
2022-11-06T02:39:59.107Z,12.87
2022-11-06T02:42:32.088Z,13.30
2022-11-06T02:45:03.253Z,13.70
2022-11-06T02:47:34.084Z,12.30
2022-11-06T02:50:06.689Z,13.57
2022-11-06T02:52:39.949Z,12.07
2022-11-06T02:55:13.317Z,11.47
2022-11-06T02:57:47.949Z,10.47
2022-11-06T03:00:18.250Z,9.83
2022-11-06T03:02:51.436Z,9.70
2022-11-06T03:05:24.878Z,16.73
2022-11-06T03:07:58.294Z,9.67
2022-11-06T03:10:31.021Z,9.83
2022-11-06T03:13:07.542Z,9.47
2022-11-06T03:15:40.320Z,10.20
2022-11-06T03:18:13.543Z,9.67
2022-11-06T03:20:49.262Z,11.53
2022-11-06T03:23:23.921Z,9.10
2022-11-06T03:25:55.753Z,10.07
2022-11-06T03:28:32.346Z,13.20
2022-11-06T03:31:03.435Z,11.60
2022-11-06T03:33:37.418Z,9.73
2022-11-06T03:36:10.820Z,11.17
2022-11-06T03:38:42.744Z,11.70
2022-11-06T03:41:15.371Z,10.20
2022-11-06T03:43:48.925Z,10.63
2022-11-06T03:46:20.911Z,16.47
2022-11-06T03:48:53.184Z,8.73
2022-11-06T03:51:26.253Z,7.73
2022-11-06T03:54:00.370Z,7.63
2022-11-06T03:56:34.717Z,8.10
2022-11-06T03:59:07.276Z,8.33
2022-11-06T04:01:38.365Z,7.73
2022-11-06T04:04:13.013Z,7.17
2022-11-06T04:06:45.601Z,7.87
2022-11-06T04:09:32.866Z,7.23
2022-11-06T04:12:20.349Z,6.97
2022-11-06T04:14:54.093Z,7.03
2022-11-06T04:17:25.334Z,7.07
2022-11-06T04:19:56.453Z,7.40
2022-11-06T04:22:42.739Z,7.13
2022-11-06T04:25:42.726Z,7.50
2022-11-06T04:28:23.559Z,10.33
2022-11-06T04:31:02.525Z,10.80
2022-11-06T04:33:37.988Z,11.97
2022-11-06T04:36:17.485Z,11.67
2022-11-06T04:38:54.957Z,7.77
2022-11-06T04:41:34.647Z,8.37
2022-11-06T04:44:08.455Z,7.87
2022-11-06T04:46:43.494Z,9.77
2022-11-06T04:49:13.902Z,9.13
2022-11-06T04:51:47.130Z,6.93
2022-11-06T04:54:16.167Z,8.33
2022-11-06T04:56:46.278Z,9.63
2022-11-06T04:59:17.661Z,9.73
2022-11-06T05:01:47.760Z,7.83
2022-11-06T05:04:16.141Z,8.97
2022-11-06T05:06:44.455Z,8.10
2022-11-06T05:09:12.767Z,8.50
2022-11-06T05:11:40.949Z,8.60
2022-11-06T05:14:09.184Z,8.37
2022-11-06T05:16:37.366Z,10.27
2022-11-06T05:19:07.092Z,9.93
2022-11-06T05:22:07.418Z,6.93
2022-11-06T05:24:35.593Z,7.57
2022-11-06T05:27:03.817Z,7.20
2022-11-06T05:29:32.021Z,8.13
2022-11-06T05:32:00.179Z,8.80
2022-11-06T05:34:29.776Z,7.30
2022-11-06T05:36:58.721Z,7.13
2022-11-06T05:39:26.910Z,7.60
2022-11-06T05:41:55.143Z,7.60
2022-11-06T05:44:23.659Z,5.70
2022-11-06T05:46:51.942Z,5.47
2022-11-06T05:49:20.556Z,6.13
2022-11-06T05:51:50.160Z,5.10
2022-11-06T05:54:18.617Z,6.00
2022-11-06T05:56:46.768Z,6.97
2022-11-06T05:59:14.951Z,5.27
2022-11-06T06:01:43.189Z,4.27
2022-11-06T06:04:11.487Z,4.13
2022-11-06T06:06:40.315Z,5.30
2022-11-06T06:09:09.945Z,3.40
2022-11-06T06:11:38.093Z,4.93
2022-11-06T06:14:06.248Z,5.63
2022-11-06T06:16:34.452Z,3.70
2022-11-06T06:19:02.733Z,4.47
2022-11-06T06:21:31.347Z,4.63
2022-11-06T06:23:59.519Z,4.33
2022-11-06T06:26:29.058Z,4.17
2022-11-06T06:28:57.493Z,5.10
2022-11-06T06:31:26.336Z,6.60
2022-11-06T06:33:54.513Z,5.43
2022-11-06T06:36:22.698Z,4.87
2022-11-06T06:38:50.871Z,4.67
2022-11-06T06:41:19.050Z,3.93
2022-11-06T06:43:50.755Z,5.00
2022-11-06T06:46:19.203Z,3.93
2022-11-06T06:48:47.365Z,4.67
2022-11-06T06:51:19.664Z,3.63
2022-11-06T06:53:51.916Z,3.87
2022-11-06T06:56:20.124Z,5.67
2022-11-06T06:58:48.550Z,3.77
2022-11-06T07:01:18.151Z,4.17
2022-11-06T07:03:46.385Z,3.67
2022-11-06T07:06:14.554Z,3.30
2022-11-06T07:08:42.726Z,4.00
2022-11-06T07:11:11.718Z,4.47
2022-11-06T07:13:39.861Z,5.13
2022-11-06T07:16:09.945Z,3.97
2022-11-06T07:18:40.825Z,4.40
2022-11-06T07:21:10.892Z,5.03
2022-11-06T07:23:39.574Z,4.13
2022-11-06T07:26:08.337Z,4.93
2022-11-06T07:28:36.709Z,3.50
2022-11-06T07:31:07.150Z,4.30
2022-11-06T07:33:36.056Z,5.47
2022-11-06T07:36:07.041Z,3.37
2022-11-06T07:38:35.756Z,3.57
2022-11-06T07:41:05.285Z,3.47
2022-11-06T07:43:33.991Z,3.50
2022-11-06T07:46:03.299Z,4.13
2022-11-06T07:48:32.557Z,3.63
2022-11-06T07:51:03.281Z,3.03
2022-11-06T07:53:33.238Z,3.90
2022-11-06T07:56:01.769Z,3.50
2022-11-06T07:58:30.075Z,2.90
2022-11-06T08:00:59.662Z,3.17
2022-11-06T08:03:30.292Z,3.20
2022-11-06T08:05:58.843Z,2.67
2022-11-06T08:08:27.158Z,2.60
2022-11-06T08:10:56.669Z,3.97
2022-11-06T08:13:26.016Z,2.20
2022-11-06T08:15:54.229Z,2.50
2022-11-06T08:18:22.401Z,3.43
2022-11-06T08:20:53.668Z,3.20
2022-11-06T08:23:22.072Z,5.90
2022-11-06T08:25:50.259Z,4.17
2022-11-06T08:28:19.837Z,7.93
2022-11-06T08:30:48.034Z,5.13
2022-11-06T08:33:16.286Z,9.30
2022-11-06T08:35:44.515Z,7.10
2022-11-06T08:38:13.083Z,6.53
2022-11-06T08:40:41.885Z,6.43
2022-11-06T08:43:11.509Z,3.97
2022-11-06T08:45:43.082Z,5.20
2022-11-06T08:48:11.512Z,5.33
2022-11-06T08:50:41.461Z,4.07
2022-11-06T08:53:09.808Z,5.70
2022-11-06T08:55:40.258Z,5.77
2022-11-06T08:58:08.739Z,5.50
2022-11-06T09:00:37.557Z,5.33
2022-11-06T09:03:10.472Z,6.03
2022-11-06T09:05:42.022Z,5.37
2022-11-06T09:08:10.617Z,5.20
2022-11-06T09:10:39.993Z,4.77
2022-11-06T09:13:08.314Z,4.90
2022-11-06T09:15:37.264Z,5.17
2022-11-06T09:18:05.631Z,4.73
2022-11-06T09:20:35.241Z,3.10
2022-11-06T09:23:05.260Z,5.03
2022-11-06T09:25:33.542Z,3.03
2022-11-06T09:28:02.051Z,4.17
2022-11-06T09:30:32.328Z,4.97
2022-11-06T09:33:01.936Z,4.50
2022-11-06T09:35:32.120Z,2.67
2022-11-06T09:38:06.146Z,3.43
2022-11-06T09:40:36.884Z,2.87
2022-11-06T09:43:31.760Z,3.27
2022-11-06T09:46:09.956Z,3.10
2022-11-06T09:48:42.988Z,2.67
2022-11-06T09:51:22.621Z,3.30
2022-11-06T09:53:57.380Z,2.77
2022-11-06T09:56:30.174Z,2.37
2022-11-06T09:59:00.975Z,4.23
2022-11-06T10:01:38.560Z,2.80
2022-11-06T10:04:07.030Z,2.40
2022-11-06T10:06:35.181Z,2.60
2022-11-06T10:09:07.685Z,2.50
2022-11-06T10:11:53.091Z,2.27
2022-11-06T10:14:31.945Z,2.40
2022-11-06T10:17:07.976Z,2.50
2022-11-06T10:19:42.358Z,2.30
2022-11-06T10:22:16.619Z,2.23
2022-11-06T10:24:50.896Z,2.03
2022-11-06T10:27:21.333Z,2.13
2022-11-06T10:30:07.373Z,2.27
2022-11-06T10:33:05.246Z,2.70
2022-11-06T10:35:39.786Z,3.00
2022-11-06T10:38:13.636Z,2.00
2022-11-06T10:40:49.142Z,2.37
2022-11-06T10:43:27.929Z,2.40
2022-11-06T10:46:02.321Z,2.77
2022-11-06T10:48:38.446Z,1.90
2022-11-06T10:51:23.624Z,2.00
2022-11-06T10:54:02.345Z,2.10
2022-11-06T10:56:58.597Z,4.30
2022-11-06T10:59:26.785Z,3.23
2022-11-06T11:01:55.625Z,1.70
2022-11-06T11:04:23.881Z,2.03
2022-11-06T11:06:52.015Z,2.57
2022-11-06T11:09:31.679Z,1.87
2022-11-06T11:12:01.541Z,1.80
2022-11-06T11:14:31.521Z,1.73
2022-11-06T11:17:02.145Z,1.67
2022-11-06T11:19:38.186Z,1.60
2022-11-06T11:22:18.238Z,1.50
2022-11-06T11:25:01.614Z,1.73
2022-11-06T11:27:33.093Z,1.50
2022-11-06T11:30:01.297Z,1.67
2022-11-06T11:32:31.257Z,1.87
2022-11-06T11:35:00.201Z,2.93
2022-11-06T11:37:30.465Z,1.90
2022-11-06T11:40:23.469Z,1.60
2022-11-06T11:42:53.010Z,1.50
2022-11-06T11:45:22.525Z,1.60
2022-11-06T11:47:52.491Z,3.27
2022-11-06T11:50:32.237Z,2.10
2022-11-06T11:53:10.243Z,1.60
2022-11-06T11:55:42.064Z,1.60
2022-11-06T11:58:21.271Z,1.50
2022-11-06T12:00:56.804Z,1.70
2022-11-06T12:03:28.303Z,1.60
2022-11-06T12:06:07.410Z,2.70
2022-11-06T12:08:36.055Z,1.80
2022-11-06T12:11:05.640Z,2.47
2022-11-06T12:13:35.141Z,1.50
2022-11-06T12:16:05.624Z,2.07
2022-11-06T12:18:35.671Z,1.60
2022-11-06T12:21:08.339Z,1.80
2022-11-06T12:23:42.052Z,1.40
2022-11-06T12:26:27.103Z,1.57
2022-11-06T12:29:05.315Z,2.03
2022-11-06T12:31:38.939Z,1.40
2022-11-06T12:34:17.206Z,3.00
2022-11-06T12:36:53.186Z,16.87
2022-11-06T12:39:27.595Z,14.23
2022-11-06T12:41:57.856Z,13.53
2022-11-06T12:44:27.490Z,12.63
2022-11-06T12:47:01.861Z,12.57
2022-11-06T12:49:51.775Z,8.77
2022-11-06T12:52:30.182Z,4.83
2022-11-06T12:55:15.697Z,3.10
2022-11-06T12:58:03.969Z,4.90
2022-11-06T13:00:41.009Z,3.57
2022-11-06T13:03:34.409Z,2.40
2022-11-06T13:06:13.180Z,2.97
2022-11-06T13:08:50.532Z,4.73
2022-11-06T13:11:32.640Z,4.83
2022-11-06T13:14:18.703Z,2.50
2022-11-06T13:16:56.002Z,4.47
2022-11-06T13:19:32.500Z,2.20
2022-11-06T13:22:17.069Z,2.10
2022-11-06T13:24:50.759Z,1.87
2022-11-06T13:27:29.031Z,1.57
2022-11-06T13:30:03.724Z,1.63
2022-11-06T13:32:37.277Z,3.07
2022-11-06T13:35:06.602Z,1.50
2022-11-06T13:37:40.881Z,1.50
2022-11-06T13:40:25.133Z,1.40
2022-11-06T13:43:00.742Z,1.57
2022-11-06T13:45:33.897Z,1.53
2022-11-06T13:48:19.377Z,1.70
2022-11-06T13:50:54.944Z,1.50
2022-11-06T13:53:31.896Z,1.50
2022-11-06T13:56:08.018Z,1.40
2022-11-06T13:58:51.658Z,1.30
2022-11-06T14:01:31.391Z,2.00
2022-11-06T14:04:24.609Z,1.70
2022-11-06T14:06:55.693Z,49.57
2022-11-06T14:09:27.400Z,12.27
2022-11-06T14:11:58.051Z,7.73
2022-11-06T14:14:28.544Z,2.60
2022-11-06T14:17:15.032Z,2.30
2022-11-06T14:20:02.614Z,1.63
2022-11-06T14:22:32.058Z,4.57
2022-11-06T14:25:02.391Z,1.87
2022-11-06T14:28:07.351Z,1.60
2022-11-06T14:31:10.960Z,2.17
2022-11-06T14:34:02.150Z,1.90
2022-11-06T14:36:36.768Z,2.13
2022-11-06T14:39:10.478Z,1.50
2022-11-06T14:41:55.778Z,2.23
2022-11-06T14:44:48.917Z,2.63
2022-11-06T14:47:36.537Z,2.10
2022-11-06T14:50:09.599Z,2.07
2022-11-06T14:52:47.413Z,2.07
2022-11-06T14:55:31.748Z,1.63
2022-11-06T14:58:13.292Z,3.30
2022-11-06T15:00:49.234Z,3.20
2022-11-06T15:03:26.145Z,2.97
2022-11-06T15:05:59.220Z,2.37
2022-11-06T15:09:00.130Z,2.77
2022-11-06T15:11:57.338Z,2.13
2022-11-06T15:15:08.012Z,3.60
2022-11-06T15:17:37.551Z,3.13
2022-11-06T15:20:31.117Z,2.07
2022-11-06T15:23:12.891Z,2.83
2022-11-06T15:25:50.099Z,2.73
2022-11-06T15:28:23.560Z,3.03
2022-11-06T15:30:56.070Z,3.97
2022-11-06T15:33:32.225Z,3.37
2022-11-06T15:36:05.607Z,2.10
2022-11-06T15:38:39.835Z,2.97
2022-11-06T15:41:15.998Z,2.37
2022-11-06T15:43:47.048Z,2.63
2022-11-06T15:46:22.692Z,3.53
2022-11-06T15:49:07.394Z,3.10
2022-11-06T15:51:39.710Z,3.47
2022-11-06T15:54:14.390Z,2.87
2022-11-06T15:56:45.141Z,3.20
2022-11-06T15:59:15.065Z,2.57
2022-11-06T16:01:47.907Z,3.33
2022-11-06T16:04:20.357Z,2.83
2022-11-06T16:06:49.122Z,4.57
2022-11-06T16:09:20.224Z,3.33
2022-11-06T16:11:53.153Z,4.20
2022-11-06T16:14:22.310Z,4.17
2022-11-06T16:16:51.917Z,3.60
2022-11-06T16:19:33.069Z,3.57
2022-11-06T16:22:07.477Z,3.70
2022-11-06T16:24:42.024Z,4.50
2022-11-06T16:27:12.644Z,3.23
2022-11-06T16:29:41.265Z,3.43
2022-11-06T16:32:15.904Z,2.80
2022-11-06T16:34:46.055Z,3.93
2022-11-06T16:37:39.688Z,3.80
2022-11-06T16:40:50.243Z,5.27
2022-11-06T16:43:22.182Z,5.90
2022-11-06T16:45:59.211Z,6.93
2022-11-06T16:48:37.481Z,4.90
2022-11-06T16:51:10.968Z,4.60
2022-11-06T16:53:53.416Z,5.13
2022-11-06T16:56:26.755Z,4.53
2022-11-06T16:59:00.722Z,4.93
2022-11-06T17:01:30.732Z,5.47
2022-11-06T17:04:02.760Z,5.27
2022-11-06T17:06:33.168Z,4.60
2022-11-06T17:09:09.900Z,4.60
2022-11-06T17:11:38.825Z,4.60
2022-11-06T17:14:19.590Z,5.00
2022-11-06T17:16:49.882Z,3.73
2022-11-06T17:19:18.396Z,6.90
2022-11-06T17:21:46.948Z,4.40
2022-11-06T17:27:03.443Z,5.27
2022-11-06T17:29:33.943Z,4.20
2022-11-06T17:32:02.108Z,5.13
2022-11-06T17:34:30.338Z,3.70
2022-11-06T17:36:58.626Z,4.77
2022-11-06T17:39:26.905Z,5.53
2022-11-06T17:41:55.236Z,4.10
2022-11-06T17:44:23.445Z,4.03
2022-11-06T17:46:53.010Z,5.37
2022-11-06T17:49:21.212Z,5.27
2022-11-06T17:51:58.296Z,4.97
2022-11-06T17:54:28.569Z,5.80
2022-11-06T17:56:57.210Z,4.60
2022-11-06T17:59:26.063Z,3.87
2022-11-06T18:01:57.419Z,4.73
2022-11-06T18:04:30.491Z,5.90
2022-11-06T18:06:59.270Z,5.27
2022-11-06T18:09:27.976Z,5.37
2022-11-06T18:11:56.838Z,4.97
2022-11-06T18:14:27.056Z,5.57
2022-11-06T18:16:56.634Z,6.77
2022-11-06T18:19:26.680Z,7.87
2022-11-06T18:21:55.903Z,10.27
2022-11-06T18:24:24.211Z,9.17
2022-11-06T18:26:52.938Z,11.47
2022-11-06T18:29:21.414Z,7.80
2022-11-06T18:31:49.578Z,9.20
2022-11-06T18:34:21.184Z,8.87
2022-11-06T18:36:50.294Z,8.63
2022-11-06T18:39:19.280Z,10.70
2022-11-06T18:41:47.511Z,8.47
2022-11-06T18:44:17.876Z,8.43
2022-11-06T18:46:46.480Z,8.70
2022-11-06T18:49:15.110Z,9.57
2022-11-06T18:51:44.930Z,10.47
2022-11-06T18:54:14.400Z,8.07
2022-11-06T18:56:42.882Z,9.67
2022-11-06T18:59:16.413Z,8.77
2022-11-06T19:01:44.729Z,8.83
2022-11-06T19:04:13.103Z,9.00
2022-11-06T19:06:41.399Z,10.10
2022-11-06T19:09:11.368Z,9.90
2022-11-06T19:11:39.673Z,11.40
2022-11-06T19:14:07.940Z,12.90
2022-11-06T19:16:36.411Z,10.47
2022-11-06T19:19:05.705Z,12.80
2022-11-06T19:21:35.402Z,16.43
2022-11-06T19:24:05.614Z,14.83
2022-11-06T19:26:36.889Z,15.50
2022-11-06T19:29:07.572Z,15.33
2022-11-06T19:31:37.305Z,15.17
2022-11-06T19:34:07.133Z,16.27
2022-11-06T19:36:35.834Z,21.87
2022-11-06T19:39:04.131Z,21.93
2022-11-06T19:41:32.379Z,20.43
2022-11-06T19:44:01.922Z,19.10
2022-11-06T19:46:35.555Z,18.70
2022-11-06T19:49:04.960Z,17.50
2022-11-06T19:51:33.534Z,16.93
2022-11-06T19:54:02.084Z,15.77
2022-11-06T19:56:30.454Z,16.00
2022-11-06T19:58:58.664Z,21.87
2022-11-06T20:01:28.405Z,14.27
2022-11-06T20:03:56.796Z,13.03
2022-11-06T20:06:27.387Z,15.17
2022-11-06T20:08:55.655Z,17.00
2022-11-06T20:11:24.091Z,15.60
2022-11-06T20:13:52.321Z,12.43
2022-11-06T20:16:21.996Z,12.47
2022-11-06T20:18:56.168Z,10.80
2022-11-06T20:21:26.282Z,9.70
2022-11-06T20:23:54.757Z,9.03
2022-11-06T20:26:23.286Z,11.47
2022-11-06T20:28:51.874Z,11.07
2022-11-06T20:31:20.532Z,11.13
2022-11-06T20:33:49.345Z,10.70
2022-11-06T20:36:20.638Z,9.50
2022-11-06T20:38:48.860Z,9.17
2022-11-06T20:41:18.321Z,11.97
2022-11-06T20:43:46.697Z,8.67
2022-11-06T20:46:18.110Z,8.40
2022-11-06T20:48:46.902Z,10.30
2022-11-06T20:51:18.944Z,8.90
2022-11-06T20:53:47.916Z,8.53
2022-11-06T20:56:20.514Z,9.20
2022-11-06T20:58:49.187Z,9.07
2022-11-06T21:01:19.958Z,8.37
2022-11-06T21:03:50.690Z,9.93
2022-11-06T21:06:22.140Z,9.87
2022-11-06T21:08:51.576Z,9.23
2022-11-06T21:11:21.528Z,10.03
2022-11-06T21:13:51.784Z,9.80
2022-11-06T21:16:22.200Z,9.30
2022-11-06T21:18:50.434Z,11.07
2022-11-06T21:21:22.504Z,8.90
2022-11-06T21:23:52.207Z,9.23
2022-11-06T21:26:22.201Z,9.57
2022-11-06T21:28:51.295Z,9.67
2022-11-06T21:31:21.458Z,10.13
2022-11-06T21:33:51.752Z,9.63
2022-11-06T21:36:23.429Z,9.53
2022-11-06T21:38:51.740Z,9.00
2022-11-06T21:41:22.353Z,9.93
2022-11-06T21:43:50.621Z,8.83
2022-11-06T21:46:19.839Z,8.00
2022-11-06T21:48:48.420Z,8.50
2022-11-06T21:51:19.212Z,8.43
2022-11-06T21:54:07.465Z,7.30
2022-11-06T21:56:36.285Z,11.60
2022-11-06T21:59:06.445Z,7.53
2022-11-06T22:01:34.763Z,7.90
2022-11-06T22:04:03.204Z,10.40
2022-11-06T22:06:31.868Z,9.03
2022-11-06T22:09:03.035Z,7.57
2022-11-06T22:11:33.188Z,9.70
2022-11-06T22:14:03.397Z,8.10
2022-11-06T22:16:33.707Z,9.83
2022-11-06T22:19:02.247Z,8.43
2022-11-06T22:21:31.559Z,9.20
2022-11-06T22:24:01.187Z,8.40
2022-11-06T22:26:31.222Z,8.17
2022-11-06T22:29:01.041Z,9.80
2022-11-06T22:31:29.855Z,11.00
2022-11-06T22:33:58.622Z,8.37
2022-11-06T22:36:27.250Z,7.40
2022-11-06T22:38:55.492Z,8.17
2022-11-06T22:41:26.400Z,7.97
2022-11-06T22:43:58.598Z,7.37
2022-11-06T22:46:27.440Z,9.73
2022-11-06T22:48:55.854Z,8.83
2022-11-06T22:51:26.266Z,9.83
2022-11-06T22:53:55.001Z,10.17
2022-11-06T22:56:26.352Z,9.80
2022-11-06T22:58:55.401Z,9.53
2022-11-06T23:01:24.328Z,9.70
2022-11-06T23:03:56.665Z,11.83
2022-11-06T23:06:25.818Z,12.37
2022-11-06T23:08:54.647Z,12.23
2022-11-06T23:11:28.183Z,10.37
2022-11-06T23:13:56.588Z,10.33
2022-11-06T23:16:41.203Z,11.43
2022-11-06T23:19:09.945Z,10.70
2022-11-06T23:21:38.532Z,11.63
2022-11-06T23:24:07.702Z,11.97
2022-11-06T23:26:37.588Z,11.90
2022-11-06T23:29:06.042Z,11.17
2022-11-06T23:31:34.221Z,11.10
2022-11-06T23:34:02.466Z,10.80
2022-11-06T23:36:30.621Z,10.80
2022-11-06T23:38:59.061Z,11.37
2022-11-06T23:41:53.248Z,9.17
2022-11-06T23:44:45.743Z,10.60
2022-11-06T23:47:13.945Z,10.63
2022-11-06T23:49:42.091Z,11.47
2022-11-06T23:52:10.323Z,10.90
2022-11-06T23:54:38.502Z,12.30
2022-11-06T23:57:06.714Z,11.13
2022-11-06T23:59:36.456Z,13.37
